Topsham, United Kingdom
Current Conditions -  °F | °C
As of 6:50 PM on Monday 20 Oct 2014 (Local Time) from EGTE Reporting Station
Scattered Clouds Scattered Clouds  
Wind Chill: 55°   Ceiling: Unl
Heat Index: 55°   Visibility: 6mi
Dew Point: 48°   Wind: 12mph
Humidity: 77%   Direction: 250°WSW
Pressure: 29.97"   Gusts: NA
Location:  50.69°N, 3.47°W
Report Text: EGTE 201750Z 25010KT 9999 FEW020 SCT030 13/09 Q1015
Loading
Personal Weather Stations






























Interactive Weather Map
Tropical Storm Tracking
New forecast layout! Learn more

10-Day Weather Forecast

Advertisements
Track Severe Weather on mobile